Time;durP1;ratioP1;P1;durP2;ratioP2;P2;SDS_P1;SDS_P2;PMS_P1;PMS_P2;Temp;Humidity;BMP_temperature;BMP_pressure;BME280_temperature;BME280_humidity;BME280_pressure;Samples;Min_cycle;Max_cycle;Signal;HPM_P1;HPM_P2
2022/09/01 00:02:14;;;;;;;6.57;2.25;;;;;;;;;;5003466;28;20057;-80
2022/09/01 00:04:42;;;;;;;3.20;1.88;;;;;;;;;;5000092;28;20548;-81
2022/09/01 00:07:08;;;;;;;5.55;1.90;;;;;;;;;;4999185;28;20126;-80
2022/09/01 00:09:35;;;;;;;6.03;2.22;;;;;;;;;;4996508;28;20431;-81
2022/09/01 00:12:02;;;;;;;4.30;2.25;;;;;;;;;;5003405;28;20060;-81
2022/09/01 00:14:30;;;;;;;7.53;2.47;;;;;;;;;;5003826;28;20372;-80
2022/09/01 00:16:57;;;;;;;5.18;1.98;;;;;;;;;;5000378;28;20432;-80
2022/09/01 00:19:23;;;;;;;5.90;2.50;;;;;;;;;;5001216;28;20059;-81
2022/09/01 00:21:49;;;;;;;6.70;2.15;;;;;;;;;;4998768;28;20135;-80
2022/09/01 00:24:16;;;;;;;9.43;2.15;;;;;;;;;;4997037;28;20030;-80
2022/09/01 00:26:43;;;;;;;6.68;2.38;;;;;;;;;;5002676;28;20050;-81
2022/09/01 00:29:09;;;;;;;7.07;2.22;;;;;;;;;;5000586;28;20376;-80
2022/09/01 00:31:35;;;;;;;5.32;2.22;;;;;;;;;;5005065;28;20034;-80
2022/09/01 00:34:01;;;;;;;5.20;2.20;;;;;;;;;;4997375;28;20375;-80
2022/09/01 00:36:27;;;;;;;7.88;2.58;;;;;;;;;;5005510;28;20109;-80
2022/09/01 00:38:53;;;;;;;5.53;2.30;;;;;;;;;;5001393;28;20498;-80
2022/09/01 00:41:21;;;;;;;5.30;2.00;;;;;;;;;;4999756;28;20448;-80
2022/09/01 00:43:48;;;;;;;6.65;2.30;;;;;;;;;;4998313;28;20422;-80
2022/09/01 00:46:22;;;;;;;6.75;2.45;;;;;;;;;;4999289;28;20390;-80
2022/09/01 00:48:52;;;;;;;6.28;2.40;;;;;;;;;;5001272;28;20030;-80
2022/09/01 00:51:18;;;;;;;6.18;2.90;;;;;;;;;;4999558;28;20128;-81
2022/09/01 00:53:45;;;;;;;8.93;2.70;;;;;;;;;;5006277;28;20026;-80
2022/09/01 00:56:11;;;;;;;5.60;2.42;;;;;;;;;;5000175;28;20042;-80
2022/09/01 00:58:37;;;;;;;7.07;2.78;;;;;;;;;;4999625;28;20041;-80
2022/09/01 01:01:05;;;;;;;7.78;2.65;;;;;;;;;;4996062;28;20046;-80
2022/09/01 01:03:31;;;;;;;4.72;2.70;;;;;;;;;;5002099;28;20029;-81
2022/09/01 01:06:02;;;;;;;5.32;2.13;;;;;;;;;;5000875;28;22020;-80
2022/09/01 01:08:32;;;;;;;5.45;2.20;;;;;;;;;;4997952;28;20113;-80
2022/09/01 01:10:59;;;;;;;5.45;2.50;;;;;;;;;;4994477;28;20537;-81
2022/09/01 01:13:27;;;;;;;7.38;2.45;;;;;;;;;;5001627;28;20314;-80
2022/09/01 01:15:53;;;;;;;6.22;2.88;;;;;;;;;;5002722;28;20455;-80
2022/09/01 01:18:19;;;;;;;7.40;2.53;;;;;;;;;;4995405;28;20487;-80
2022/09/01 01:23:36;;;;;;;8.48;3.08;;;;;;;;;;5001614;28;20065;-80
2022/09/01 01:26:03;;;;;;;11.95;3.25;;;;;;;;;;4995120;28;20449;-80
2022/09/01 01:28:31;;;;;;;7.72;2.80;;;;;;;;;;4998583;28;20259;-80
2022/09/01 01:31:03;;;;;;;8.70;3.08;;;;;;;;;;4998063;28;20030;-81
2022/09/01 01:33:39;;;;;;;5.80;2.78;;;;;;;;;;4997511;28;20022;-80
2022/09/01 01:36:06;;;;;;;7.55;2.80;;;;;;;;;;4995408;28;20041;-80
2022/09/01 01:38:34;;;;;;;7.20;2.75;;;;;;;;;;4991417;28;20460;-80
2022/09/01 01:41:01;;;;;;;7.65;2.70;;;;;;;;;;5000187;28;20129;-80
2022/09/01 01:43:27;;;;;;;5.18;2.35;;;;;;;;;;4997694;28;20811;-81
2022/09/01 01:45:57;;;;;;;5.90;2.38;;;;;;;;;;4996069;28;20046;-80
2022/09/01 01:48:24;;;;;;;5.28;2.58;;;;;;;;;;4983469;28;20200;-81
2022/09/01 01:50:54;;;;;;;5.50;2.90;;;;;;;;;;4997184;28;20091;-81
2022/09/01 01:53:21;;;;;;;4.70;2.10;;;;;;;;;;4994496;28;20168;-80
2022/09/01 01:55:48;;;;;;;5.78;2.60;;;;;;;;;;4998771;28;20284;-81
2022/09/01 01:58:14;;;;;;;3.95;2.40;;;;;;;;;;4999161;28;20439;-80
2022/09/01 02:00:43;;;;;;;5.50;2.90;;;;;;;;;;4998990;28;20038;-80
2022/09/01 02:03:11;;;;;;;8.00;2.80;;;;;;;;;;5001544;28;20026;-81
2022/09/01 02:05:38;;;;;;;5.35;3.10;;;;;;;;;;4997691;28;20031;-80
2022/09/01 02:08:09;;;;;;;7.07;2.85;;;;;;;;;;4990802;28;20467;-80
2022/09/01 02:10:36;;;;;;;6.72;2.90;;;;;;;;;;4994044;28;20141;-80
2022/09/01 02:13:06;;;;;;;7.72;3.03;;;;;;;;;;4997605;28;20069;-80
2022/09/01 02:15:42;;;;;;;6.57;3.00;;;;;;;;;;4996296;28;20022;-80
2022/09/01 02:18:08;;;;;;;5.13;2.58;;;;;;;;;;4998852;28;20498;-80
2022/09/01 02:20:35;;;;;;;8.57;2.67;;;;;;;;;;4995576;28;20045;-81
2022/09/01 02:23:09;;;;;;;4.95;2.78;;;;;;;;;;4997140;28;20027;-81
2022/09/01 02:25:36;;;;;;;5.00;2.65;;;;;;;;;;4994669;28;20161;-81
2022/09/01 02:28:03;;;;;;;4.30;2.00;;;;;;;;;;4998616;28;20088;-80
2022/09/01 02:30:31;;;;;;;5.00;2.10;;;;;;;;;;4999503;28;20041;-81
2022/09/01 02:32:58;;;;;;;6.55;2.50;;;;;;;;;;5001032;28;20034;-81
2022/09/01 02:35:27;;;;;;;6.93;2.58;;;;;;;;;;4998347;28;20126;-81
2022/09/01 02:37:57;;;;;;;6.75;2.63;;;;;;;;;;5001383;28;20149;-81
2022/09/01 02:40:23;;;;;;;4.68;2.08;;;;;;;;;;4992012;28;20034;-80
2022/09/01 02:42:51;;;;;;;6.40;2.25;;;;;;;;;;4998991;28;20535;-80
2022/09/01 02:45:18;;;;;;;7.00;2.58;;;;;;;;;;4992766;28;20463;-81
2022/09/01 02:47:47;;;;;;;7.05;3.03;;;;;;;;;;5001849;28;20072;-80
2022/09/01 02:50:17;;;;;;;6.63;2.25;;;;;;;;;;4994340;28;20030;-81
2022/09/01 02:52:43;;;;;;;8.85;3.22;;;;;;;;;;4994631;28;20022;-80
2022/09/01 02:55:10;;;;;;;6.78;3.20;;;;;;;;;;4992404;28;20038;-80
2022/09/01 02:57:36;;;;;;;6.95;2.78;;;;;;;;;;4993847;28;20117;-80
2022/09/01 03:00:07;;;;;;;7.25;2.63;;;;;;;;;;4993742;28;20069;-80
2022/09/01 03:02:35;;;;;;;6.03;2.20;;;;;;;;;;4994020;28;20061;-80
2022/09/01 03:05:01;;;;;;;6.60;2.50;;;;;;;;;;4989620;28;20129;-80
2022/09/01 03:07:28;;;;;;;6.53;3.17;;;;;;;;;;4997622;28;20038;-80
2022/09/01 03:09:54;;;;;;;6.97;2.60;;;;;;;;;;5001187;28;20142;-80
2022/09/01 03:12:20;;;;;;;4.43;2.90;;;;;;;;;;4995985;28;20121;-81
2022/09/01 03:14:46;;;;;;;8.32;3.25;;;;;;;;;;4995755;28;20386;-80
2022/09/01 03:17:12;;;;;;;6.22;3.47;;;;;;;;;;4995644;28;20034;-81
2022/09/01 03:19:41;;;;;;;7.88;3.38;;;;;;;;;;4993456;28;20038;-81
2022/09/01 03:22:07;;;;;;;7.82;3.45;;;;;;;;;;4999332;28;20080;-80
2022/09/01 03:24:33;;;;;;;6.18;3.05;;;;;;;;;;4993250;28;20484;-80
2022/09/01 03:26:59;;;;;;;6.82;3.60;;;;;;;;;;4996932;28;20500;-80
2022/09/01 03:29:25;;;;;;;6.53;3.88;;;;;;;;;;4994908;28;20026;-81
2022/09/01 03:31:51;;;;;;;8.40;3.33;;;;;;;;;;4991790;28;20065;-81
2022/09/01 03:34:20;;;;;;;8.43;3.22;;;;;;;;;;4991584;28;20041;-81
2022/09/01 03:36:49;;;;;;;9.02;3.67;;;;;;;;;;4992171;28;20027;-80
2022/09/01 03:39:17;;;;;;;8.07;3.20;;;;;;;;;;4995476;28;20156;-80
2022/09/01 03:41:43;;;;;;;5.30;2.78;;;;;;;;;;4992523;28;20037;-80
2022/09/01 03:44:12;;;;;;;7.03;3.00;;;;;;;;;;4994755;28;20625;-80
2022/09/01 03:46:39;;;;;;;6.25;3.22;;;;;;;;;;4992603;28;20035;-80
2022/09/01 03:49:14;;;;;;;5.13;3.08;;;;;;;;;;4995668;28;20026;-80
2022/09/01 03:51:41;;;;;;;6.45;3.25;;;;;;;;;;4994149;28;20037;-81
2022/09/01 03:54:08;;;;;;;6.55;3.10;;;;;;;;;;4994728;28;20589;-80
2022/09/01 03:56:34;;;;;;;6.32;3.25;;;;;;;;;;4996233;28;20559;-80
2022/09/01 03:59:00;;;;;;;6.10;2.72;;;;;;;;;;4994578;28;20502;-81
2022/09/01 04:01:28;;;;;;;7.00;3.10;;;;;;;;;;4991055;28;20041;-80
2022/09/01 04:03:54;;;;;;;4.80;2.70;;;;;;;;;;4997049;28;20566;-80
2022/09/01 04:06:22;;;;;;;8.13;3.03;;;;;;;;;;4993432;28;20034;-80
2022/09/01 04:08:49;;;;;;;6.50;2.90;;;;;;;;;;4992714;28;20027;-80
2022/09/01 04:11:22;;;;;;;5.28;2.60;;;;;;;;;;4997152;28;20077;-81
2022/09/01 04:13:49;;;;;;;8.25;3.80;;;;;;;;;;4994660;28;20105;-81
2022/09/01 04:19:18;;;;;;;7.53;2.97;;;;;;;;;;4994968;28;20105;-80
2022/09/01 04:21:45;;;;;;;7.30;3.10;;;;;;;;;;5001630;28;20069;-80
2022/09/01 04:24:14;;;;;;;4.55;3.10;;;;;;;;;;4993408;28;20041;-80
2022/09/01 04:26:41;;;;;;;7.28;3.78;;;;;;;;;;4993104;28;20487;-80
2022/09/01 04:29:07;;;;;;;9.38;3.30;;;;;;;;;;4990291;28;20149;-81
2022/09/01 04:31:36;;;;;;;5.22;3.03;;;;;;;;;;5003941;28;20262;-80
2022/09/01 04:34:12;;;;;;;7.28;2.90;;;;;;;;;;4998126;28;20023;-80
2022/09/01 04:36:39;;;;;;;6.30;2.88;;;;;;;;;;5001288;28;20033;-80
2022/09/01 04:39:07;;;;;;;6.03;3.28;;;;;;;;;;5009994;28;20096;-80
2022/09/01 04:41:34;;;;;;;6.50;3.22;;;;;;;;;;4996000;28;20065;-80
2022/09/01 04:44:03;;;;;;;13.43;4.13;;;;;;;;;;4995502;28;20033;-80
2022/09/01 04:46:34;;;;;;;7.68;3.75;;;;;;;;;;4997948;28;20102;-81
2022/09/01 04:49:08;;;;;;;6.32;3.33;;;;;;;;;;4994694;28;20034;-80
2022/09/01 04:51:37;;;;;;;7.20;3.83;;;;;;;;;;5005904;28;20483;-80
2022/09/01 04:54:10;;;;;;;5.85;3.17;;;;;;;;;;5004038;28;20029;-80
2022/09/01 04:56:37;;;;;;;6.13;3.05;;;;;;;;;;5000799;28;20379;-80
2022/09/01 04:59:05;;;;;;;8.48;2.90;;;;;;;;;;5009306;28;20042;-80
2022/09/01 05:01:41;;;;;;;4.57;2.88;;;;;;;;;;5009945;28;20033;-80
2022/09/01 05:04:08;;;;;;;6.43;3.00;;;;;;;;;;4997681;28;20394;-80
2022/09/01 05:06:38;;;;;;;6.07;2.70;;;;;;;;;;5003706;28;20483;-79
2022/09/01 05:09:04;;;;;;;5.05;2.97;;;;;;;;;;5003889;28;20117;-80
2022/09/01 05:11:30;;;;;;;7.68;3.08;;;;;;;;;;5001122;28;20080;-80
2022/09/01 05:13:56;;;;;;;9.18;3.40;;;;;;;;;;5000448;28;20041;-81
2022/09/01 05:16:24;;;;;;;7.03;2.85;;;;;;;;;;4999047;28;20478;-80
2022/09/01 05:18:53;;;;;;;7.97;2.80;;;;;;;;;;5001654;28;20077;-81
2022/09/01 05:21:21;;;;;;;6.38;3.60;;;;;;;;;;4994306;28;20054;-80
2022/09/01 05:23:49;;;;;;;7.22;3.38;;;;;;;;;;4999871;28;20544;-80
2022/09/01 05:26:17;;;;;;;7.97;3.33;;;;;;;;;;4999256;28;20069;-79
2022/09/01 05:28:47;;;;;;;8.05;2.88;;;;;;;;;;5004885;28;20030;-80
2022/09/01 05:31:13;;;;;;;8.20;3.10;;;;;;;;;;5011501;28;20094;-80
2022/09/01 05:33:44;;;;;;;10.45;3.20;;;;;;;;;;5010415;28;20072;-80
2022/09/01 05:36:11;;;;;;;5.50;3.10;;;;;;;;;;5001124;28;20033;-80
2022/09/01 05:38:41;;;;;;;6.63;2.88;;;;;;;;;;5004089;28;20037;-80
2022/09/01 05:41:07;;;;;;;6.25;2.85;;;;;;;;;;5010710;28;20652;-81
2022/09/01 05:43:34;;;;;;;7.90;3.50;;;;;;;;;;5010038;28;20130;-80
2022/09/01 05:46:03;;;;;;;7.35;3.40;;;;;;;;;;5011324;23;20065;-80
2022/09/01 05:48:38;;;;;;;6.05;3.55;;;;;;;;;;4987136;28;20649;-80
2022/09/01 05:51:05;;;;;;;10.35;3.38;;;;;;;;;;4991308;28;20657;-80
2022/09/01 05:53:32;;;;;;;6.60;3.70;;;;;;;;;;4990790;28;20026;-80
2022/09/01 05:55:59;;;;;;;9.75;4.00;;;;;;;;;;4982709;28;20027;-80
2022/09/01 05:58:26;;;;;;;7.10;3.92;;;;;;;;;;4976735;28;20038;-80
2022/09/01 06:00:54;;;;;;;7.10;3.67;;;;;;;;;;4974416;28;20114;-80
2022/09/01 06:03:21;;;;;;;5.97;3.58;;;;;;;;;;4977081;28;20365;-80
2022/09/01 06:05:51;;;;;;;7.88;4.13;;;;;;;;;;4990013;28;20467;-80
2022/09/01 06:08:17;;;;;;;6.45;3.13;;;;;;;;;;4983600;28;20022;-80
2022/09/01 06:10:44;;;;;;;16.65;4.85;;;;;;;;;;4980552;28;20039;-81
2022/09/01 06:13:10;;;;;;;7.07;3.78;;;;;;;;;;4980332;28;20023;-80
2022/09/01 06:15:37;;;;;;;6.35;3.30;;;;;;;;;;4991095;28;20070;-80
2022/09/01 06:18:05;;;;;;;7.32;3.63;;;;;;;;;;4985161;28;20117;-80
2022/09/01 06:20:32;;;;;;;6.00;3.28;;;;;;;;;;4975450;28;20039;-80
2022/09/01 06:22:58;;;;;;;7.75;4.45;;;;;;;;;;4989000;28;20109;-80
2022/09/01 06:25:29;;;;;;;9.60;4.88;;;;;;;;;;4990507;28;20117;-80
2022/09/01 06:27:56;;;;;;;8.77;4.93;;;;;;;;;;4983231;28;20026;-80
2022/09/01 06:30:25;;;;;;;9.05;4.93;;;;;;;;;;4977936;28;20035;-81
2022/09/01 06:32:51;;;;;;;8.88;4.18;;;;;;;;;;4978504;28;20026;-80
2022/09/01 06:35:17;;;;;;;6.68;4.53;;;;;;;;;;4981437;28;20058;-80
2022/09/01 06:37:44;;;;;;;11.15;6.93;;;;;;;;;;4988056;28;20038;-80
2022/09/01 06:40:16;;;;;;;7.25;4.20;;;;;;;;;;4985184;28;20034;-80
2022/09/01 06:42:44;;;;;;;6.38;3.28;;;;;;;;;;4984602;28;20518;-80
2022/09/01 06:45:10;;;;;;;7.82;2.83;;;;;;;;;;4987699;28;20114;-80
2022/09/01 06:47:36;;;;;;;3.67;2.53;;;;;;;;;;4976576;28;20034;-80
2022/09/01 06:50:07;;;;;;;7.60;3.10;;;;;;;;;;4983030;28;20042;-80
2022/09/01 06:52:33;;;;;;;5.95;2.83;;;;;;;;;;4990399;28;20031;-80
2022/09/01 06:54:59;;;;;;;6.00;2.78;;;;;;;;;;4987319;28;20104;-80
2022/09/01 06:57:26;;;;;;;4.47;2.60;;;;;;;;;;4984092;28;20071;-80
2022/09/01 06:59:52;;;;;;;6.22;2.63;;;;;;;;;;4986567;28;20026;-80
2022/09/01 07:02:19;;;;;;;6.95;2.65;;;;;;;;;;4988127;28;20581;-80
2022/09/01 07:04:45;;;;;;;8.93;2.55;;;;;;;;;;4989679;28;20054;-80
2022/09/01 07:07:11;;;;;;;8.55;3.45;;;;;;;;;;4987490;28;20030;-81
2022/09/01 07:09:38;;;;;;;6.93;2.90;;;;;;;;;;4981224;28;20084;-80
2022/09/01 07:12:05;;;;;;;4.63;2.80;;;;;;;;;;4983206;28;20026;-80
2022/09/01 07:14:31;;;;;;;8.93;3.45;;;;;;;;;;4985585;28;20038;-80
2022/09/01 07:16:57;;;;;;;9.07;4.00;;;;;;;;;;4982409;28;20042;-80
2022/09/01 07:19:24;;;;;;;8.95;3.65;;;;;;;;;;4978302;28;20387;-80
2022/09/01 07:21:50;;;;;;;6.32;4.13;;;;;;;;;;4985720;28;20723;-80
2022/09/01 07:24:19;;;;;;;6.60;3.15;;;;;;;;;;4981935;28;20125;-80
2022/09/01 07:26:49;;;;;;;7.35;3.90;;;;;;;;;;4972329;28;20046;-80
2022/09/01 07:29:20;;;;;;;6.38;3.83;;;;;;;;;;4979669;28;20105;-80
2022/09/01 07:31:46;;;;;;;8.35;3.83;;;;;;;;;;4987435;28;20064;-81
2022/09/01 07:34:13;;;;;;;8.82;3.63;;;;;;;;;;4981002;28;20034;-80
2022/09/01 07:36:43;;;;;;;6.65;4.03;;;;;;;;;;4983837;28;20117;-80
2022/09/01 07:39:09;;;;;;;6.03;3.45;;;;;;;;;;4982226;28;20814;-81
2022/09/01 07:41:37;;;;;;;7.75;3.47;;;;;;;;;;4985290;28;20801;-80
2022/09/01 07:44:04;;;;;;;6.88;4.13;;;;;;;;;;4983738;28;20037;-80
2022/09/01 07:46:31;;;;;;;6.85;4.20;;;;;;;;;;4983386;28;20050;-80
2022/09/01 07:48:58;;;;;;;6.95;3.80;;;;;;;;;;4983966;28;20030;-81
2022/09/01 07:51:25;;;;;;;6.28;4.07;;;;;;;;;;4981934;28;20035;-81
2022/09/01 07:53:51;;;;;;;6.43;4.15;;;;;;;;;;4983956;28;20026;-80
2022/09/01 07:56:21;;;;;;;6.90;4.18;;;;;;;;;;4983344;28;20065;-80
2022/09/01 07:58:48;;;;;;;11.20;4.38;;;;;;;;;;4976860;28;20035;-81
2022/09/01 08:01:17;;;;;;;8.57;5.00;;;;;;;;;;4979009;28;20049;-81
2022/09/01 08:03:44;;;;;;;5.90;3.20;;;;;;;;;;4988759;28;20034;-81
2022/09/01 08:06:12;;;;;;;8.05;3.00;;;;;;;;;;4988785;28;20030;-80
2022/09/01 08:08:38;;;;;;;6.70;3.40;;;;;;;;;;4987585;28;20041;-81
2022/09/01 08:11:05;;;;;;;7.20;3.45;;;;;;;;;;4978175;28;20034;-81
2022/09/01 08:13:37;;;;;;;5.57;2.97;;;;;;;;;;4992237;28;20060;-81
2022/09/01 08:16:06;;;;;;;7.80;3.70;;;;;;;;;;4992338;28;20514;-80
2022/09/01 08:18:32;;;;;;;7.22;3.65;;;;;;;;;;4986469;28;20058;-81
2022/09/01 08:20:58;;;;;;;10.68;3.83;;;;;;;;;;4992063;28;20034;-81
2022/09/01 08:23:26;;;;;;;6.05;3.13;;;;;;;;;;4990688;28;20955;-81
2022/09/01 08:25:52;;;;;;;5.28;3.05;;;;;;;;;;4987811;28;20035;-81
2022/09/01 08:28:19;;;;;;;6.75;3.60;;;;;;;;;;4978884;28;20034;-81
2022/09/01 08:30:47;;;;;;;7.68;3.63;;;;;;;;;;4982588;28;20554;-81
2022/09/01 08:33:13;;;;;;;9.95;4.30;;;;;;;;;;4991746;28;20030;-81
2022/09/01 08:35:39;;;;;;;7.03;3.85;;;;;;;;;;4993591;28;20026;-81
2022/09/01 08:38:06;;;;;;;6.63;3.45;;;;;;;;;;4987109;28;20034;-81
2022/09/01 08:40:32;;;;;;;7.35;3.95;;;;;;;;;;4988472;28;20491;-81
2022/09/01 08:43:07;;;;;;;7.18;4.10;;;;;;;;;;4991242;28;20034;-80
2022/09/01 08:45:37;;;;;;;6.32;3.67;;;;;;;;;;4983892;28;20061;-81
2022/09/01 08:48:14;;;;;;;6.53;3.58;;;;;;;;;;4982375;28;20031;-81
2022/09/01 08:50:41;;;;;;;4.75;3.03;;;;;;;;;;4986542;28;20038;-81
2022/09/01 08:53:11;;;;;;;5.75;3.20;;;;;;;;;;4984168;28;20094;-81
2022/09/01 08:55:44;;;;;;;6.72;3.28;;;;;;;;;;4990052;28;20065;-81
2022/09/01 08:58:12;;;;;;;6.75;2.63;;;;;;;;;;4978209;28;20038;-81
2022/09/01 09:00:41;;;;;;;7.20;3.80;;;;;;;;;;4992472;28;20515;-81
2022/09/01 09:03:07;;;;;;;5.85;3.67;;;;;;;;;;4990578;28;20410;-81
2022/09/01 09:05:51;;;;;;;8.95;4.03;;;;;;;;;;4977659;28;20067;-81
2022/09/01 09:08:38;;;;;;;7.85;3.67;;;;;;;;;;4981060;28;20031;-81
2022/09/01 09:11:06;;;;;;;7.07;3.90;;;;;;;;;;4972307;28;20038;-81
2022/09/01 09:13:32;;;;;;;7.03;3.92;;;;;;;;;;4983377;28;20054;-81
2022/09/01 09:16:01;;;;;;;6.18;3.47;;;;;;;;;;4992316;28;20069;-81
2022/09/01 09:18:43;;;;;;;7.28;4.05;;;;;;;;;;4986502;28;20788;-81
2022/09/01 09:21:13;;;;;;;6.63;3.70;;;;;;;;;;4990616;28;20034;-81
2022/09/01 09:23:42;;;;;;;8.27;3.08;;;;;;;;;;4991469;28;20027;-81
2022/09/01 09:26:08;;;;;;;5.00;3.13;;;;;;;;;;4990227;28;20034;-81
2022/09/01 09:28:34;;;;;;;5.22;2.70;;;;;;;;;;4987866;28;20086;-81
2022/09/01 09:31:18;;;;;;;8.55;4.10;;;;;;;;;;4989766;28;20035;-81
2022/09/01 09:33:44;;;;;;;7.75;3.22;;;;;;;;;;4980688;28;20030;-81
2022/09/01 09:36:17;;;;;;;6.40;3.40;;;;;;;;;;4987356;28;20049;-81
2022/09/01 09:38:43;;;;;;;6.68;3.08;;;;;;;;;;4990193;28;20030;-81
2022/09/01 09:41:12;;;;;;;6.60;3.45;;;;;;;;;;4987251;28;20034;-81
2022/09/01 09:43:43;;;;;;;6.55;3.20;;;;;;;;;;4985053;28;20026;-81
2022/09/01 09:46:23;;;;;;;6.53;3.30;;;;;;;;;;4988884;28;20050;-81
2022/09/01 09:49:05;;;;;;;6.85;3.67;;;;;;;;;;4989152;28;20550;-81
2022/09/01 09:51:31;;;;;;;6.57;3.42;;;;;;;;;;4986553;28;20091;-81
2022/09/01 09:54:15;;;;;;;7.10;3.35;;;;;;;;;;4988720;28;20026;-81
2022/09/01 09:56:43;;;;;;;6.00;3.42;;;;;;;;;;4980670;28;20046;-81
2022/09/01 09:59:21;;;;;;;8.05;3.58;;;;;;;;;;4988151;28;20030;-81
2022/09/01 10:01:50;;;;;;;5.32;3.03;;;;;;;;;;4979257;28;20046;-81
2022/09/01 10:04:31;;;;;;;5.85;3.15;;;;;;;;;;4981087;28;20341;-81
2022/09/01 10:06:57;;;;;;;5.30;3.30;;;;;;;;;;4988272;28;20412;-81
2022/09/01 10:09:24;;;;;;;5.15;2.83;;;;;;;;;;4980177;28;20032;-81
2022/09/01 10:11:57;;;;;;;5.35;3.42;;;;;;;;;;4976459;28;20027;-81
2022/09/01 10:14:26;;;;;;;5.53;2.75;;;;;;;;;;4990007;28;20880;-81
2022/09/01 10:17:01;;;;;;;7.47;3.10;;;;;;;;;;4989490;28;20034;-82
2022/09/01 10:19:29;;;;;;;5.72;2.88;;;;;;;;;;4987965;28;20039;-81
2022/09/01 10:21:55;;;;;;;7.28;3.30;;;;;;;;;;4985386;28;20037;-81
2022/09/01 10:24:34;;;;;;;6.90;2.92;;;;;;;;;;4986927;28;20038;-81
2022/09/01 10:27:01;;;;;;;5.47;2.95;;;;;;;;;;4978438;28;20030;-81
2022/09/01 10:29:45;;;;;;;5.55;3.08;;;;;;;;;;4989454;28;20026;-82
2022/09/01 10:32:15;;;;;;;5.90;3.38;;;;;;;;;;4989037;28;20042;-81
2022/09/01 10:34:42;;;;;;;8.50;4.13;;;;;;;;;;4989738;28;20034;-81
2022/09/01 10:37:08;;;;;;;6.15;2.95;;;;;;;;;;4985842;28;20054;-81
2022/09/01 10:39:54;;;;;;;7.10;3.65;;;;;;;;;;4989523;28;20038;-81
2022/09/01 10:42:20;;;;;;;6.75;3.40;;;;;;;;;;4983574;28;20053;-81
2022/09/01 10:44:56;;;;;;;5.88;3.67;;;;;;;;;;4989789;28;20068;-81
2022/09/01 10:47:28;;;;;;;7.50;4.03;;;;;;;;;;4980628;28;20449;-81
2022/09/01 10:49:54;;;;;;;11.00;3.92;;;;;;;;;;4982141;28;20451;-81
2022/09/01 10:52:39;;;;;;;7.63;3.70;;;;;;;;;;4985145;28;20069;-81
2022/09/01 10:55:07;;;;;;;7.00;3.95;;;;;;;;;;4983554;28;20039;-81
2022/09/01 10:57:36;;;;;;;7.82;3.72;;;;;;;;;;4987896;28;20034;-81
2022/09/01 11:00:21;;;;;;;4.38;3.05;;;;;;;;;;4986577;28;20498;-82
2022/09/01 11:03:05;;;;;;;9.48;3.20;;;;;;;;;;4975167;28;20041;-81
2022/09/01 11:05:54;;;;;;;5.82;3.30;;;;;;;;;;4986850;28;20034;-81
2022/09/01 11:08:21;;;;;;;5.70;3.55;;;;;;;;;;4974569;28;20046;-81
2022/09/01 11:10:54;;;;;;;7.13;4.03;;;;;;;;;;4987774;28;20034;-81
2022/09/01 11:13:35;;;;;;;6.13;3.35;;;;;;;;;;4987710;28;20038;-82
2022/09/01 11:16:20;;;;;;;10.38;3.72;;;;;;;;;;4979239;28;20041;-81
2022/09/01 11:18:46;;;;;;;5.85;2.97;;;;;;;;;;4988484;28;20030;-81
2022/09/01 11:21:32;;;;;;;5.43;3.45;;;;;;;;;;4986411;28;20026;-81
2022/09/01 11:24:16;;;;;;;6.25;3.50;;;;;;;;;;4979945;28;20030;-81
2022/09/01 11:26:46;;;;;;;7.90;4.18;;;;;;;;;;4978323;28;20038;-81
2022/09/01 11:29:31;;;;;;;7.00;4.03;;;;;;;;;;4982482;28;20031;-81
2022/09/01 11:31:58;;;;;;;9.45;4.57;;;;;;;;;;4979551;28;20066;-81
2022/09/01 11:34:24;;;;;;;6.93;4.25;;;;;;;;;;4986571;28;20023;-81
2022/09/01 11:36:52;;;;;;;6.72;3.80;;;;;;;;;;4982914;28;20037;-81
2022/09/01 11:39:18;;;;;;;6.78;3.63;;;;;;;;;;4980654;28;20038;-82
2022/09/01 11:41:50;;;;;;;9.10;3.95;;;;;;;;;;4975246;28;20776;-81
2022/09/01 11:44:21;;;;;;;9.05;4.30;;;;;;;;;;4982275;28;20793;-81
2022/09/01 11:46:48;;;;;;;7.03;4.05;;;;;;;;;;4988013;28;20530;-81
2022/09/01 11:49:31;;;;;;;8.52;4.13;;;;;;;;;;4986287;28;20586;-81
2022/09/01 11:51:59;;;;;;;10.02;4.32;;;;;;;;;;4984807;28;20030;-81
2022/09/01 11:54:25;;;;;;;7.53;3.78;;;;;;;;;;4980421;28;20019;-82
2022/09/01 11:56:52;;;;;;;6.25;4.03;;;;;;;;;;4979571;28;20042;-81
2022/09/01 11:59:31;;;;;;;6.53;3.90;;;;;;;;;;4980230;28;20042;-82
2022/09/01 12:01:58;;;;;;;7.00;3.55;;;;;;;;;;4988980;28;20041;-81
2022/09/01 12:04:27;;;;;;;6.50;4.07;;;;;;;;;;4985801;28;20894;-81
2022/09/01 12:06:53;;;;;;;11.13;4.38;;;;;;;;;;4982970;28;20476;-81
2022/09/01 12:09:19;;;;;;;6.00;3.55;;;;;;;;;;4982964;28;20031;-81
2022/09/01 12:11:45;;;;;;;6.10;3.38;;;;;;;;;;4987818;28;20495;-81
2022/09/01 12:14:18;;;;;;;6.90;4.07;;;;;;;;;;4988591;28;20027;-81
2022/09/01 12:16:55;;;;;;;7.00;3.65;;;;;;;;;;4980221;28;20061;-80
2022/09/01 12:19:23;;;;;;;4.78;3.20;;;;;;;;;;4987807;28;20026;-81
2022/09/01 12:21:56;;;;;;;4.38;3.35;;;;;;;;;;4985654;28;20030;-81
2022/09/01 12:24:23;;;;;;;10.88;3.40;;;;;;;;;;4977402;28;20038;-82
2022/09/01 12:26:53;;;;;;;6.60;3.13;;;;;;;;;;4985382;28;20084;-81
2022/09/01 12:29:19;;;;;;;7.32;2.88;;;;;;;;;;4984431;28;20031;-81
2022/09/01 12:31:47;;;;;;;4.97;2.90;;;;;;;;;;4971177;28;20034;-81
2022/09/01 12:34:27;;;;;;;7.82;3.40;;;;;;;;;;4976384;28;20073;-81
2022/09/01 12:37:02;;;;;;;6.13;2.90;;;;;;;;;;4974875;28;20045;-81
2022/09/01 12:39:32;;;;;;;4.88;2.50;;;;;;;;;;4980104;28;20113;-81
2022/09/01 12:42:06;;;;;;;4.72;2.55;;;;;;;;;;4976341;28;20089;-81
2022/09/01 12:44:34;;;;;;;7.07;2.90;;;;;;;;;;4975634;28;20118;-81
2022/09/01 12:47:02;;;;;;;8.70;3.25;;;;;;;;;;4978117;28;20053;-81
2022/09/01 12:49:42;;;;;;;3.97;2.97;;;;;;;;;;4986596;28;20739;-81
2022/09/01 12:52:10;;;;;;;7.22;3.63;;;;;;;;;;4985707;28;20077;-81
2022/09/01 12:54:37;;;;;;;4.35;3.15;;;;;;;;;;4987432;28;20045;-82
2022/09/01 12:57:03;;;;;;;6.57;2.92;;;;;;;;;;4989860;28;20360;-81
2022/09/01 12:59:30;;;;;;;6.82;2.97;;;;;;;;;;4988267;28;20038;-82
2022/09/01 13:01:56;;;;;;;5.53;2.60;;;;;;;;;;4986162;28;20042;-82
2022/09/01 13:04:29;;;;;;;7.20;3.05;;;;;;;;;;4989164;28;20022;-82
2022/09/01 13:07:06;;;;;;;5.13;3.25;;;;;;;;;;4982918;28;20042;-81
2022/09/01 13:09:32;;;;;;;8.95;3.03;;;;;;;;;;4992594;28;20031;-81
2022/09/01 13:12:31;;;;;;;5.22;2.85;;;;;;;;;;4988764;28;20038;-81
2022/09/01 13:14:57;;;;;;;6.68;3.17;;;;;;;;;;4938017;28;20093;-81
2022/09/01 13:17:23;;;;;;;4.28;2.88;;;;;;;;;;4986807;28;20030;-81
2022/09/01 13:19:49;;;;;;;7.93;3.00;;;;;;;;;;4984534;28;20045;-80
2022/09/01 13:22:15;;;;;;;4.53;2.72;;;;;;;;;;4985211;28;20082;-81
2022/09/01 13:24:41;;;;;;;4.35;2.80;;;;;;;;;;4987582;28;20034;-81
2022/09/01 13:27:07;;;;;;;8.15;3.25;;;;;;;;;;4991055;28;20084;-81
2022/09/01 13:29:33;;;;;;;5.63;3.08;;;;;;;;;;4984268;28;20105;-81
2022/09/01 13:32:00;;;;;;;5.80;2.45;;;;;;;;;;4987842;28;20113;-81
2022/09/01 13:34:26;;;;;;;3.92;2.60;;;;;;;;;;4988823;28;20030;-81
2022/09/01 13:36:52;;;;;;;5.45;2.88;;;;;;;;;;4986842;28;20074;-81
2022/09/01 13:39:18;;;;;;;6.88;2.60;;;;;;;;;;4980691;28;20484;-81
2022/09/01 13:41:45;;;;;;;7.57;2.85;;;;;;;;;;4990422;28;20538;-81
2022/09/01 13:44:11;;;;;;;5.30;2.88;;;;;;;;;;4979291;28;20026;-81
2022/09/01 13:46:37;;;;;;;4.10;2.53;;;;;;;;;;4989815;28;20058;-81
2022/09/01 13:49:04;;;;;;;3.15;2.30;;;;;;;;;;4990156;28;20034;-81
2022/09/01 13:51:30;;;;;;;6.57;2.90;;;;;;;;;;4986081;28;20081;-81
2022/09/01 13:53:56;;;;;;;6.85;2.17;;;;;;;;;;4977902;28;20927;-82
2022/09/01 13:56:22;;;;;;;9.73;2.65;;;;;;;;;;4989341;28;20040;-81
2022/09/01 13:58:48;;;;;;;7.40;2.55;;;;;;;;;;4982542;28;20034;-81
2022/09/01 14:01:14;;;;;;;4.53;2.30;;;;;;;;;;4991250;28;20062;-81
2022/09/01 14:03:40;;;;;;;4.25;2.28;;;;;;;;;;4982792;28;20030;-81
2022/09/01 14:06:06;;;;;;;3.85;2.55;;;;;;;;;;4987272;28;20529;-81
2022/09/01 14:08:32;;;;;;;8.00;2.30;;;;;;;;;;4986098;28;20034;-81
2022/09/01 14:10:59;;;;;;;5.85;2.42;;;;;;;;;;4984653;28;20042;-81
2022/09/01 14:13:26;;;;;;;4.32;2.10;;;;;;;;;;4990189;28;20193;-81
2022/09/01 14:15:52;;;;;;;4.93;2.30;;;;;;;;;;4987035;28;20042;-81
2022/09/01 14:18:20;;;;;;;5.40;1.92;;;;;;;;;;4990198;28;20423;-81
2022/09/01 14:20:47;;;;;;;5.30;2.45;;;;;;;;;;4990552;28;20125;-81
2022/09/01 14:23:14;;;;;;;6.47;2.25;;;;;;;;;;4988860;28;20041;-81
2022/09/01 14:25:45;;;;;;;7.10;2.53;;;;;;;;;;4988585;28;20036;-82
2022/09/01 14:28:11;;;;;;;3.20;2.00;;;;;;;;;;4985016;28;20534;-81
2022/09/01 14:30:39;;;;;;;4.95;2.35;;;;;;;;;;4985667;28;20026;-81
2022/09/01 14:33:06;;;;;;;9.20;2.60;;;;;;;;;;4978411;28;20416;-81
2022/09/01 14:35:32;;;;;;;5.97;2.30;;;;;;;;;;4986756;28;20403;-82
2022/09/01 14:37:59;;;;;;;5.93;2.50;;;;;;;;;;4989045;28;20030;-82
2022/09/01 14:40:27;;;;;;;4.18;2.20;;;;;;;;;;4988135;28;20042;-82
2022/09/01 14:42:54;;;;;;;4.50;1.90;;;;;;;;;;4987041;28;20030;-81
2022/09/01 14:45:21;;;;;;;6.82;2.17;;;;;;;;;;4974114;28;20070;-82
2022/09/01 14:47:48;;;;;;;4.47;2.25;;;;;;;;;;4988344;28;20467;-79
2022/09/01 14:50:15;;;;;;;5.55;2.50;;;;;;;;;;4985434;28;20062;-79
2022/09/01 14:52:41;;;;;;;5.32;2.63;;;;;;;;;;4990095;28;20113;-79
2022/09/01 14:55:08;;;;;;;6.45;2.50;;;;;;;;;;4990074;28;20113;-81
2022/09/01 14:57:34;;;;;;;6.57;2.00;;;;;;;;;;4983332;28;20088;-81
2022/09/01 15:00:00;;;;;;;6.25;2.13;;;;;;;;;;4976166;28;20035;-79